sensor_id;sensor_type;location;lat;lon;timestamp;P1;durP1;ratioP1;P2;durP2;ratioP2
14619;SDS011;32125;48.518;9.050;2023-04-09T00:01:27;14.93;;;12.90;;
14619;SDS011;32125;48.518;9.050;2023-04-09T00:03:53;14.03;;;12.53;;
14619;SDS011;32125;48.518;9.050;2023-04-09T00:06:19;16.37;;;13.00;;
14619;SDS011;32125;48.518;9.050;2023-04-09T00:08:47;13.97;;;12.50;;
14619;SDS011;32125;48.518;9.050;2023-04-09T00:11:13;18.10;;;13.77;;
14619;SDS011;32125;48.518;9.050;2023-04-09T00:13:39;14.87;;;12.07;;
14619;SDS011;32125;48.518;9.050;2023-04-09T00:16:06;14.83;;;13.10;;
14619;SDS011;32125;48.518;9.050;2023-04-09T00:18:32;14.80;;;12.77;;
14619;SDS011;32125;48.518;9.050;2023-04-09T00:20:58;15.83;;;12.97;;
14619;SDS011;32125;48.518;9.050;2023-04-09T00:23:24;14.20;;;12.67;;
14619;SDS011;32125;48.518;9.050;2023-04-09T00:25:50;15.23;;;13.00;;
14619;SDS011;32125;48.518;9.050;2023-04-09T00:28:16;14.00;;;12.50;;
14619;SDS011;32125;48.518;9.050;2023-04-09T00:30:44;15.70;;;13.07;;
14619;SDS011;32125;48.518;9.050;2023-04-09T00:33:10;16.10;;;13.33;;
14619;SDS011;32125;48.518;9.050;2023-04-09T00:35:36;15.10;;;12.80;;
14619;SDS011;32125;48.518;9.050;2023-04-09T00:38:02;16.10;;;13.50;;
14619;SDS011;32125;48.518;9.050;2023-04-09T00:40:29;15.93;;;13.03;;
14619;SDS011;32125;48.518;9.050;2023-04-09T00:42:55;15.23;;;13.10;;
14619;SDS011;32125;48.518;9.050;2023-04-09T00:45:21;15.37;;;12.80;;
14619;SDS011;32125;48.518;9.050;2023-04-09T00:47:49;14.13;;;12.27;;
14619;SDS011;32125;48.518;9.050;2023-04-09T00:50:15;14.23;;;12.13;;
14619;SDS011;32125;48.518;9.050;2023-04-09T00:52:41;14.00;;;11.67;;
14619;SDS011;32125;48.518;9.050;2023-04-09T00:55:07;14.77;;;12.37;;
14619;SDS011;32125;48.518;9.050;2023-04-09T00:57:34;14.77;;;12.10;;
14619;SDS011;32125;48.518;9.050;2023-04-09T01:00:00;14.67;;;12.80;;
14619;SDS011;32125;48.518;9.050;2023-04-09T01:02:28;14.47;;;12.57;;
14619;SDS011;32125;48.518;9.050;2023-04-09T01:04:54;15.70;;;12.40;;
14619;SDS011;32125;48.518;9.050;2023-04-09T01:12:22;13.20;;;11.67;;
14619;SDS011;32125;48.518;9.050;2023-04-09T01:14:58;15.10;;;12.33;;
14619;SDS011;32125;48.518;9.050;2023-04-09T01:20:51;14.63;;;12.20;;
14619;SDS011;32125;48.518;9.050;2023-04-09T01:23:30;15.10;;;12.40;;
14619;SDS011;32125;48.518;9.050;2023-04-09T01:31:01;14.40;;;12.10;;
14619;SDS011;32125;48.518;9.050;2023-04-09T01:33:30;13.90;;;12.17;;
14619;SDS011;32125;48.518;9.050;2023-04-09T01:35:58;16.63;;;12.60;;
14619;SDS011;32125;48.518;9.050;2023-04-09T01:38:29;15.63;;;12.63;;
14619;SDS011;32125;48.518;9.050;2023-04-09T01:40:56;15.77;;;12.47;;
14619;SDS011;32125;48.518;9.050;2023-04-09T01:43:25;15.03;;;12.70;;
14619;SDS011;32125;48.518;9.050;2023-04-09T01:45:55;15.73;;;12.90;;
14619;SDS011;32125;48.518;9.050;2023-04-09T01:48:21;15.33;;;11.93;;
14619;SDS011;32125;48.518;9.050;2023-04-09T01:50:48;15.17;;;12.93;;
14619;SDS011;32125;48.518;9.050;2023-04-09T01:53:15;15.07;;;13.23;;
14619;SDS011;32125;48.518;9.050;2023-04-09T01:55:41;15.90;;;12.53;;
14619;SDS011;32125;48.518;9.050;2023-04-09T01:58:07;14.13;;;12.47;;
14619;SDS011;32125;48.518;9.050;2023-04-09T02:03:47;15.30;;;13.10;;
14619;SDS011;32125;48.518;9.050;2023-04-09T02:08:53;15.70;;;13.43;;
14619;SDS011;32125;48.518;9.050;2023-04-09T02:11:20;15.83;;;13.20;;
14619;SDS011;32125;48.518;9.050;2023-04-09T02:13:48;17.13;;;13.87;;
14619;SDS011;32125;48.518;9.050;2023-04-09T02:16:14;16.53;;;13.30;;
14619;SDS011;32125;48.518;9.050;2023-04-09T02:18:40;16.77;;;13.83;;
14619;SDS011;32125;48.518;9.050;2023-04-09T02:21:06;16.20;;;13.37;;
14619;SDS011;32125;48.518;9.050;2023-04-09T02:23:32;15.90;;;14.20;;
14619;SDS011;32125;48.518;9.050;2023-04-09T02:25:59;17.77;;;14.37;;
14619;SDS011;32125;48.518;9.050;2023-04-09T02:28:25;16.67;;;13.53;;
14619;SDS011;32125;48.518;9.050;2023-04-09T02:30:50;16.00;;;13.80;;
14619;SDS011;32125;48.518;9.050;2023-04-09T02:33:19;17.43;;;14.37;;
14619;SDS011;32125;48.518;9.050;2023-04-09T02:35:47;16.33;;;14.03;;
14619;SDS011;32125;48.518;9.050;2023-04-09T02:38:13;16.03;;;13.93;;
14619;SDS011;32125;48.518;9.050;2023-04-09T02:40:39;16.87;;;14.43;;
14619;SDS011;32125;48.518;9.050;2023-04-09T02:43:06;16.60;;;13.87;;
14619;SDS011;32125;48.518;9.050;2023-04-09T02:45:34;17.77;;;14.20;;
14619;SDS011;32125;48.518;9.050;2023-04-09T02:48:03;17.03;;;14.40;;
14619;SDS011;32125;48.518;9.050;2023-04-09T02:50:29;18.17;;;14.57;;
14619;SDS011;32125;48.518;9.050;2023-04-09T02:52:58;17.37;;;14.93;;
14619;SDS011;32125;48.518;9.050;2023-04-09T02:55:26;18.47;;;14.90;;
14619;SDS011;32125;48.518;9.050;2023-04-09T02:57:52;18.27;;;15.10;;
14619;SDS011;32125;48.518;9.050;2023-04-09T03:00:18;18.20;;;14.07;;
14619;SDS011;32125;48.518;9.050;2023-04-09T03:02:44;17.40;;;15.07;;
14619;SDS011;32125;48.518;9.050;2023-04-09T03:05:13;17.43;;;14.73;;
14619;SDS011;32125;48.518;9.050;2023-04-09T03:07:39;19.43;;;15.53;;
14619;SDS011;32125;48.518;9.050;2023-04-09T03:10:05;16.67;;;13.40;;
14619;SDS011;32125;48.518;9.050;2023-04-09T03:12:36;15.87;;;14.00;;
14619;SDS011;32125;48.518;9.050;2023-04-09T03:15:05;16.40;;;13.53;;
14619;SDS011;32125;48.518;9.050;2023-04-09T03:17:31;16.93;;;12.90;;
14619;SDS011;32125;48.518;9.050;2023-04-09T03:20:00;15.77;;;13.67;;
14619;SDS011;32125;48.518;9.050;2023-04-09T03:22:26;15.27;;;12.70;;
14619;SDS011;32125;48.518;9.050;2023-04-09T03:24:52;14.10;;;12.20;;
14619;SDS011;32125;48.518;9.050;2023-04-09T03:27:21;14.43;;;12.07;;
14619;SDS011;32125;48.518;9.050;2023-04-09T03:29:47;13.70;;;12.20;;
14619;SDS011;32125;48.518;9.050;2023-04-09T03:32:15;13.93;;;12.10;;
14619;SDS011;32125;48.518;9.050;2023-04-09T03:34:41;16.00;;;12.37;;
14619;SDS011;32125;48.518;9.050;2023-04-09T03:37:07;15.93;;;12.60;;
14619;SDS011;32125;48.518;9.050;2023-04-09T03:39:33;15.90;;;13.67;;
14619;SDS011;32125;48.518;9.050;2023-04-09T03:41:59;15.50;;;13.73;;
14619;SDS011;32125;48.518;9.050;2023-04-09T03:44:25;15.27;;;12.27;;
14619;SDS011;32125;48.518;9.050;2023-04-09T03:46:51;17.53;;;13.00;;
14619;SDS011;32125;48.518;9.050;2023-04-09T03:49:17;14.70;;;12.13;;
14619;SDS011;32125;48.518;9.050;2023-04-09T03:51:43;14.77;;;12.47;;
14619;SDS011;32125;48.518;9.050;2023-04-09T03:54:09;14.37;;;12.37;;
14619;SDS011;32125;48.518;9.050;2023-04-09T03:56:36;17.17;;;12.80;;
14619;SDS011;32125;48.518;9.050;2023-04-09T03:59:02;17.03;;;13.93;;
14619;SDS011;32125;48.518;9.050;2023-04-09T04:01:27;16.47;;;13.57;;
14619;SDS011;32125;48.518;9.050;2023-04-09T04:03:57;16.40;;;13.83;;
14619;SDS011;32125;48.518;9.050;2023-04-09T04:06:23;15.87;;;13.80;;
14619;SDS011;32125;48.518;9.050;2023-04-09T04:08:52;17.57;;;13.87;;
14619;SDS011;32125;48.518;9.050;2023-04-09T04:11:18;16.80;;;14.30;;
14619;SDS011;32125;48.518;9.050;2023-04-09T04:13:44;16.97;;;14.43;;
14619;SDS011;32125;48.518;9.050;2023-04-09T04:16:10;20.30;;;14.03;;
14619;SDS011;32125;48.518;9.050;2023-04-09T04:18:36;15.77;;;13.60;;
14619;SDS011;32125;48.518;9.050;2023-04-09T04:21:02;16.60;;;13.93;;
14619;SDS011;32125;48.518;9.050;2023-04-09T04:23:28;16.10;;;13.93;;
14619;SDS011;32125;48.518;9.050;2023-04-09T04:25:57;15.40;;;13.77;;
14619;SDS011;32125;48.518;9.050;2023-04-09T04:28:23;18.50;;;14.67;;
14619;SDS011;32125;48.518;9.050;2023-04-09T04:30:51;16.73;;;14.20;;
14619;SDS011;32125;48.518;9.050;2023-04-09T04:33:17;18.50;;;14.07;;
14619;SDS011;32125;48.518;9.050;2023-04-09T04:35:47;17.17;;;14.73;;
14619;SDS011;32125;48.518;9.050;2023-04-09T04:38:15;18.37;;;14.60;;
14619;SDS011;32125;48.518;9.050;2023-04-09T04:40:43;17.47;;;14.47;;
14619;SDS011;32125;48.518;9.050;2023-04-09T04:43:10;17.10;;;14.30;;
14619;SDS011;32125;48.518;9.050;2023-04-09T04:45:38;16.47;;;14.30;;
14619;SDS011;32125;48.518;9.050;2023-04-09T04:48:04;17.10;;;14.80;;
14619;SDS011;32125;48.518;9.050;2023-04-09T04:50:30;17.27;;;14.40;;
14619;SDS011;32125;48.518;9.050;2023-04-09T04:52:56;15.83;;;13.43;;
14619;SDS011;32125;48.518;9.050;2023-04-09T04:55:22;17.47;;;14.40;;
14619;SDS011;32125;48.518;9.050;2023-04-09T04:57:49;15.77;;;13.63;;
14619;SDS011;32125;48.518;9.050;2023-04-09T05:00:20;16.97;;;13.93;;
14619;SDS011;32125;48.518;9.050;2023-04-09T05:02:49;15.77;;;13.00;;
14619;SDS011;32125;48.518;9.050;2023-04-09T05:05:15;17.00;;;13.83;;
14619;SDS011;32125;48.518;9.050;2023-04-09T05:07:41;16.90;;;13.77;;
14619;SDS011;32125;48.518;9.050;2023-04-09T05:10:09;16.80;;;14.23;;
14619;SDS011;32125;48.518;9.050;2023-04-09T05:12:35;16.13;;;13.40;;
14619;SDS011;32125;48.518;9.050;2023-04-09T05:15:01;16.63;;;14.27;;
14619;SDS011;32125;48.518;9.050;2023-04-09T05:17:30;17.00;;;13.80;;
14619;SDS011;32125;48.518;9.050;2023-04-09T05:19:59;16.87;;;13.70;;
14619;SDS011;32125;48.518;9.050;2023-04-09T05:22:25;15.93;;;13.67;;
14619;SDS011;32125;48.518;9.050;2023-04-09T05:24:51;18.57;;;14.93;;
14619;SDS011;32125;48.518;9.050;2023-04-09T05:27:17;17.23;;;14.27;;
14619;SDS011;32125;48.518;9.050;2023-04-09T05:29:47;16.70;;;14.37;;
14619;SDS011;32125;48.518;9.050;2023-04-09T05:32:13;16.80;;;13.87;;
14619;SDS011;32125;48.518;9.050;2023-04-09T05:34:39;16.70;;;13.50;;
14619;SDS011;32125;48.518;9.050;2023-04-09T05:37:05;16.73;;;13.77;;
14619;SDS011;32125;48.518;9.050;2023-04-09T05:39:34;16.57;;;14.40;;
14619;SDS011;32125;48.518;9.050;2023-04-09T05:42:00;16.73;;;14.17;;
14619;SDS011;32125;48.518;9.050;2023-04-09T05:44:26;16.80;;;13.33;;
14619;SDS011;32125;48.518;9.050;2023-04-09T05:46:52;16.63;;;13.40;;
14619;SDS011;32125;48.518;9.050;2023-04-09T05:49:18;15.97;;;13.57;;
14619;SDS011;32125;48.518;9.050;2023-04-09T05:51:45;16.40;;;13.67;;
14619;SDS011;32125;48.518;9.050;2023-04-09T05:54:11;15.77;;;13.57;;
14619;SDS011;32125;48.518;9.050;2023-04-09T05:56:37;14.43;;;12.93;;
14619;SDS011;32125;48.518;9.050;2023-04-09T05:59:03;16.60;;;13.10;;
14619;SDS011;32125;48.518;9.050;2023-04-09T06:01:29;14.93;;;13.33;;
14619;SDS011;32125;48.518;9.050;2023-04-09T06:03:55;14.90;;;12.60;;
14619;SDS011;32125;48.518;9.050;2023-04-09T06:06:21;16.20;;;14.17;;
14619;SDS011;32125;48.518;9.050;2023-04-09T06:08:47;14.57;;;12.97;;
14619;SDS011;32125;48.518;9.050;2023-04-09T06:11:13;14.77;;;12.63;;
14619;SDS011;32125;48.518;9.050;2023-04-09T06:13:39;17.57;;;13.20;;
14619;SDS011;32125;48.518;9.050;2023-04-09T06:16:06;13.13;;;11.73;;
14619;SDS011;32125;48.518;9.050;2023-04-09T06:18:32;12.73;;;10.60;;
14619;SDS011;32125;48.518;9.050;2023-04-09T06:21:04;10.87;;;9.50;;
14619;SDS011;32125;48.518;9.050;2023-04-09T06:23:35;11.07;;;9.90;;
14619;SDS011;32125;48.518;9.050;2023-04-09T06:26:01;11.60;;;9.83;;
14619;SDS011;32125;48.518;9.050;2023-04-09T06:28:27;11.50;;;10.27;;
14619;SDS011;32125;48.518;9.050;2023-04-09T06:30:53;11.47;;;10.27;;
14619;SDS011;32125;48.518;9.050;2023-04-09T06:33:20;10.70;;;9.60;;
14619;SDS011;32125;48.518;9.050;2023-04-09T06:35:46;11.10;;;9.80;;
14619;SDS011;32125;48.518;9.050;2023-04-09T06:38:15;11.23;;;10.07;;
14619;SDS011;32125;48.518;9.050;2023-04-09T06:40:46;10.87;;;9.77;;
14619;SDS011;32125;48.518;9.050;2023-04-09T06:43:12;10.80;;;9.70;;
14619;SDS011;32125;48.518;9.050;2023-04-09T06:45:38;11.20;;;10.10;;
14619;SDS011;32125;48.518;9.050;2023-04-09T06:48:04;10.63;;;9.53;;
14619;SDS011;32125;48.518;9.050;2023-04-09T06:50:31;11.60;;;9.73;;
14619;SDS011;32125;48.518;9.050;2023-04-09T06:52:57;10.70;;;9.60;;
14619;SDS011;32125;48.518;9.050;2023-04-09T06:55:23;10.37;;;9.20;;
14619;SDS011;32125;48.518;9.050;2023-04-09T06:58:03;10.47;;;9.27;;
14619;SDS011;32125;48.518;9.050;2023-04-09T07:00:29;12.47;;;9.80;;
14619;SDS011;32125;48.518;9.050;2023-04-09T07:02:55;11.83;;;10.70;;
14619;SDS011;32125;48.518;9.050;2023-04-09T07:05:21;11.80;;;10.53;;
14619;SDS011;32125;48.518;9.050;2023-04-09T07:07:47;12.13;;;10.83;;
14619;SDS011;32125;48.518;9.050;2023-04-09T07:10:16;10.47;;;9.47;;
14619;SDS011;32125;48.518;9.050;2023-04-09T07:12:42;11.73;;;10.63;;
14619;SDS011;32125;48.518;9.050;2023-04-09T07:15:08;11.40;;;10.30;;
14619;SDS011;32125;48.518;9.050;2023-04-09T07:17:36;11.93;;;10.73;;
14619;SDS011;32125;48.518;9.050;2023-04-09T07:20:05;12.03;;;10.83;;
14619;SDS011;32125;48.518;9.050;2023-04-09T07:22:31;12.43;;;11.15;;
14619;SDS011;32125;48.518;9.050;2023-04-09T07:24:57;13.05;;;11.77;;
14619;SDS011;32125;48.518;9.050;2023-04-09T07:27:24;13.50;;;12.10;;
14619;SDS011;32125;48.518;9.050;2023-04-09T07:29:53;12.07;;;10.88;;
14619;SDS011;32125;48.518;9.050;2023-04-09T07:32:20;12.68;;;11.43;;
14619;SDS011;32125;48.518;9.050;2023-04-09T07:34:46;13.13;;;11.13;;
14619;SDS011;32125;48.518;9.050;2023-04-09T07:37:12;12.75;;;10.20;;
14619;SDS011;32125;48.518;9.050;2023-04-09T07:39:41;9.73;;;8.82;;
14619;SDS011;32125;48.518;9.050;2023-04-09T07:42:07;10.30;;;9.30;;
14619;SDS011;32125;48.518;9.050;2023-04-09T07:44:36;9.57;;;8.68;;
14619;SDS011;32125;48.518;9.050;2023-04-09T07:47:03;11.40;;;10.30;;
14619;SDS011;32125;48.518;9.050;2023-04-09T07:49:29;9.50;;;8.50;;
14619;SDS011;32125;48.518;9.050;2023-04-09T07:51:58;9.48;;;8.65;;
14619;SDS011;32125;48.518;9.050;2023-04-09T07:54:24;9.30;;;8.40;;
14619;SDS011;32125;48.518;9.050;2023-04-09T07:56:50;9.27;;;8.38;;
14619;SDS011;32125;48.518;9.050;2023-04-09T07:59:16;9.40;;;8.57;;
14619;SDS011;32125;48.518;9.050;2023-04-09T08:04:31;8.57;;;7.78;;
14619;SDS011;32125;48.518;9.050;2023-04-09T08:06:57;8.20;;;7.50;;
14619;SDS011;32125;48.518;9.050;2023-04-09T08:09:23;8.13;;;7.43;;
14619;SDS011;32125;48.518;9.050;2023-04-09T08:11:49;7.20;;;6.60;;
14619;SDS011;32125;48.518;9.050;2023-04-09T08:14:16;7.05;;;6.45;;
14619;SDS011;32125;48.518;9.050;2023-04-09T08:16:43;6.10;;;5.60;;
14619;SDS011;32125;48.518;9.050;2023-04-09T08:19:09;6.25;;;5.75;;
14619;SDS011;32125;48.518;9.050;2023-04-09T08:21:36;6.50;;;6.00;;
14619;SDS011;32125;48.518;9.050;2023-04-09T08:24:03;6.85;;;6.25;;
14619;SDS011;32125;48.518;9.050;2023-04-09T08:26:30;7.22;;;6.55;;
14619;SDS011;32125;48.518;9.050;2023-04-09T08:28:56;8.18;;;7.47;;
14619;SDS011;32125;48.518;9.050;2023-04-09T08:31:22;9.07;;;8.17;;
14619;SDS011;32125;48.518;9.050;2023-04-09T08:33:49;8.57;;;7.77;;
14619;SDS011;32125;48.518;9.050;2023-04-09T08:36:15;8.00;;;7.20;;
14619;SDS011;32125;48.518;9.050;2023-04-09T08:38:41;8.60;;;7.90;;
14619;SDS011;32125;48.518;9.050;2023-04-09T08:41:14;8.63;;;7.73;;
14619;SDS011;32125;48.518;9.050;2023-04-09T08:43:41;8.73;;;7.93;;
14619;SDS011;32125;48.518;9.050;2023-04-09T08:46:08;9.50;;;8.60;;
14619;SDS011;32125;48.518;9.050;2023-04-09T08:48:35;8.60;;;7.80;;
14619;SDS011;32125;48.518;9.050;2023-04-09T08:51:01;8.20;;;7.40;;
14619;SDS011;32125;48.518;9.050;2023-04-09T08:53:27;7.47;;;6.77;;
14619;SDS011;32125;48.518;9.050;2023-04-09T08:55:53;8.10;;;7.30;;
14619;SDS011;32125;48.518;9.050;2023-04-09T08:58:19;8.33;;;7.53;;
14619;SDS011;32125;48.518;9.050;2023-04-09T09:00:45;8.07;;;7.23;;
14619;SDS011;32125;48.518;9.050;2023-04-09T09:03:11;8.77;;;7.97;;
14619;SDS011;32125;48.518;9.050;2023-04-09T09:08:04;8.40;;;7.50;;
14619;SDS011;32125;48.518;9.050;2023-04-09T09:13:14;8.30;;;7.50;;
14619;SDS011;32125;48.518;9.050;2023-04-09T09:15:40;8.43;;;7.40;;
14619;SDS011;32125;48.518;9.050;2023-04-09T09:18:07;7.83;;;7.13;;
14619;SDS011;32125;48.518;9.050;2023-04-09T09:20:33;7.70;;;6.90;;
14619;SDS011;32125;48.518;9.050;2023-04-09T09:22:59;8.23;;;7.23;;
14619;SDS011;32125;48.518;9.050;2023-04-09T09:25:25;7.90;;;7.10;;
14619;SDS011;32125;48.518;9.050;2023-04-09T09:27:51;7.30;;;6.60;;
14619;SDS011;32125;48.518;9.050;2023-04-09T09:30:24;7.13;;;6.43;;
14619;SDS011;32125;48.518;9.050;2023-04-09T09:32:51;7.33;;;6.67;;
14619;SDS011;32125;48.518;9.050;2023-04-09T09:35:17;7.33;;;6.70;;
14619;SDS011;32125;48.518;9.050;2023-04-09T09:37:47;7.07;;;6.47;;
14619;SDS011;32125;48.518;9.050;2023-04-09T09:40:25;6.77;;;6.17;;
14619;SDS011;32125;48.518;9.050;2023-04-09T09:42:55;6.50;;;5.90;;
14619;SDS011;32125;48.518;9.050;2023-04-09T09:45:22;5.60;;;5.10;;
14619;SDS011;32125;48.518;9.050;2023-04-09T09:47:48;5.20;;;4.70;;
14619;SDS011;32125;48.518;9.050;2023-04-09T09:50:15;4.77;;;4.30;;
14619;SDS011;32125;48.518;9.050;2023-04-09T09:52:42;5.03;;;4.53;;
14619;SDS011;32125;48.518;9.050;2023-04-09T09:55:12;6.23;;;4.60;;
14619;SDS011;32125;48.518;9.050;2023-04-09T09:57:41;5.80;;;5.30;;
14619;SDS011;32125;48.518;9.050;2023-04-09T10:00:10;5.80;;;4.87;;
14619;SDS011;32125;48.518;9.050;2023-04-09T10:02:42;5.20;;;4.70;;
14619;SDS011;32125;48.518;9.050;2023-04-09T10:05:18;4.87;;;4.47;;
14619;SDS011;32125;48.518;9.050;2023-04-09T10:07:48;4.80;;;4.40;;
14619;SDS011;32125;48.518;9.050;2023-04-09T10:10:17;5.13;;;4.63;;
14619;SDS011;32125;48.518;9.050;2023-04-09T10:12:43;4.97;;;4.53;;
14619;SDS011;32125;48.518;9.050;2023-04-09T10:15:10;5.20;;;4.70;;
14619;SDS011;32125;48.518;9.050;2023-04-09T10:17:36;4.60;;;4.20;;
14619;SDS011;32125;48.518;9.050;2023-04-09T10:22:38;6.10;;;5.37;;
14619;SDS011;32125;48.518;9.050;2023-04-09T10:25:04;6.27;;;5.70;;
14619;SDS011;32125;48.518;9.050;2023-04-09T10:27:31;6.70;;;6.10;;
14619;SDS011;32125;48.518;9.050;2023-04-09T10:29:57;7.90;;;7.20;;
14619;SDS011;32125;48.518;9.050;2023-04-09T10:32:24;8.40;;;7.53;;
14619;SDS011;32125;48.518;9.050;2023-04-09T10:34:55;9.50;;;8.20;;
14619;SDS011;32125;48.518;9.050;2023-04-09T10:37:25;9.43;;;8.50;;
14619;SDS011;32125;48.518;9.050;2023-04-09T10:39:51;7.93;;;7.13;;
14619;SDS011;32125;48.518;9.050;2023-04-09T10:42:35;8.07;;;7.27;;
14619;SDS011;32125;48.518;9.050;2023-04-09T10:45:10;7.67;;;6.90;;
14619;SDS011;32125;48.518;9.050;2023-04-09T10:47:37;7.27;;;6.57;;
14619;SDS011;32125;48.518;9.050;2023-04-09T10:52:56;6.97;;;6.27;;
14619;SDS011;32125;48.518;9.050;2023-04-09T10:57:57;7.25;;;6.60;;
14619;SDS011;32125;48.518;9.050;2023-04-09T11:00:23;7.25;;;6.55;;
14619;SDS011;32125;48.518;9.050;2023-04-09T11:08:04;8.05;;;7.35;;
14619;SDS011;32125;48.518;9.050;2023-04-09T11:10:31;7.37;;;6.67;;
14619;SDS011;32125;48.518;9.050;2023-04-09T11:12:58;8.40;;;7.60;;
14619;SDS011;32125;48.518;9.050;2023-04-09T11:15:24;7.97;;;7.23;;
14619;SDS011;32125;48.518;9.050;2023-04-09T11:17:50;6.57;;;5.97;;
14619;SDS011;32125;48.518;9.050;2023-04-09T11:20:18;6.38;;;5.78;;
14619;SDS011;32125;48.518;9.050;2023-04-09T11:22:48;5.53;;;5.03;;
14619;SDS011;32125;48.518;9.050;2023-04-09T11:25:25;5.70;;;5.20;;
14619;SDS011;32125;48.518;9.050;2023-04-09T11:27:51;5.70;;;5.20;;
14619;SDS011;32125;48.518;9.050;2023-04-09T11:30:20;5.77;;;5.27;;
14619;SDS011;32125;48.518;9.050;2023-04-09T11:32:46;6.20;;;5.60;;
14619;SDS011;32125;48.518;9.050;2023-04-09T11:35:13;6.20;;;5.60;;
14619;SDS011;32125;48.518;9.050;2023-04-09T11:37:40;5.30;;;4.80;;
14619;SDS011;32125;48.518;9.050;2023-04-09T11:40:07;5.93;;;5.20;;
14619;SDS011;32125;48.518;9.050;2023-04-09T11:42:34;5.33;;;4.90;;
14619;SDS011;32125;48.518;9.050;2023-04-09T11:45:02;5.70;;;5.20;;
14619;SDS011;32125;48.518;9.050;2023-04-09T11:47:28;5.73;;;5.23;;
14619;SDS011;32125;48.518;9.050;2023-04-09T11:49:54;5.20;;;4.77;;
14619;SDS011;32125;48.518;9.050;2023-04-09T11:52:20;5.87;;;5.27;;
14619;SDS011;32125;48.518;9.050;2023-04-09T11:54:49;5.80;;;5.30;;
14619;SDS011;32125;48.518;9.050;2023-04-09T11:57:15;5.67;;;5.17;;
14619;SDS011;32125;48.518;9.050;2023-04-09T11:59:44;4.90;;;4.50;;
14619;SDS011;32125;48.518;9.050;2023-04-09T12:02:10;4.90;;;4.50;;
14619;SDS011;32125;48.518;9.050;2023-04-09T12:04:36;4.75;;;4.35;;
14619;SDS011;32125;48.518;9.050;2023-04-09T12:07:02;4.32;;;4.03;;
14619;SDS011;32125;48.518;9.050;2023-04-09T12:09:28;4.45;;;4.05;;
14619;SDS011;32125;48.518;9.050;2023-04-09T12:11:56;4.70;;;4.30;;
14619;SDS011;32125;48.518;9.050;2023-04-09T12:14:23;5.65;;;5.15;;
14619;SDS011;32125;48.518;9.050;2023-04-09T12:16:50;5.70;;;5.10;;
14619;SDS011;32125;48.518;9.050;2023-04-09T12:19:16;5.70;;;5.10;;
14619;SDS011;32125;48.518;9.050;2023-04-09T12:21:47;5.60;;;5.10;;
14619;SDS011;32125;48.518;9.050;2023-04-09T12:24:15;4.90;;;4.50;;
14619;SDS011;32125;48.518;9.050;2023-04-09T12:26:44;5.25;;;4.75;;
14619;SDS011;32125;48.518;9.050;2023-04-09T12:29:12;5.20;;;4.75;;
14619;SDS011;32125;48.518;9.050;2023-04-09T12:31:38;5.18;;;4.68;;
14619;SDS011;32125;48.518;9.050;2023-04-09T12:34:04;5.20;;;4.80;;
14619;SDS011;32125;48.518;9.050;2023-04-09T12:36:30;4.90;;;4.50;;
14619;SDS011;32125;48.518;9.050;2023-04-09T12:38:56;4.80;;;4.40;;
14619;SDS011;32125;48.518;9.050;2023-04-09T12:41:23;5.30;;;4.80;;
14619;SDS011;32125;48.518;9.050;2023-04-09T12:43:49;4.82;;;4.43;;
14619;SDS011;32125;48.518;9.050;2023-04-09T12:46:16;5.03;;;4.60;;
14619;SDS011;32125;48.518;9.050;2023-04-09T12:48:42;5.15;;;4.70;;
14619;SDS011;32125;48.518;9.050;2023-04-09T12:51:08;5.30;;;4.80;;
14619;SDS011;32125;48.518;9.050;2023-04-09T12:53:35;4.60;;;4.20;;
14619;SDS011;32125;48.518;9.050;2023-04-09T12:56:01;5.03;;;4.63;;
14619;SDS011;32125;48.518;9.050;2023-04-09T12:58:28;4.53;;;4.13;;
14619;SDS011;32125;48.518;9.050;2023-04-09T13:00:55;4.88;;;4.47;;
14619;SDS011;32125;48.518;9.050;2023-04-09T13:03:22;6.07;;;4.70;;
14619;SDS011;32125;48.518;9.050;2023-04-09T13:05:48;4.55;;;4.18;;
14619;SDS011;32125;48.518;9.050;2023-04-09T13:08:14;4.57;;;4.20;;
14619;SDS011;32125;48.518;9.050;2023-04-09T13:10:40;4.72;;;4.32;;
14619;SDS011;32125;48.518;9.050;2023-04-09T13:13:06;4.82;;;4.40;;
14619;SDS011;32125;48.518;9.050;2023-04-09T13:15:36;4.70;;;4.30;;
14619;SDS011;32125;48.518;9.050;2023-04-09T13:18:02;4.32;;;4.00;;
14619;SDS011;32125;48.518;9.050;2023-04-09T13:20:28;4.90;;;4.50;;
14619;SDS011;32125;48.518;9.050;2023-04-09T13:22:55;4.28;;;3.92;;
14619;SDS011;32125;48.518;9.050;2023-04-09T13:25:21;4.97;;;3.88;;
14619;SDS011;32125;48.518;9.050;2023-04-09T13:27:48;4.35;;;3.95;;
14619;SDS011;32125;48.518;9.050;2023-04-09T13:30:15;4.25;;;3.90;;
14619;SDS011;32125;48.518;9.050;2023-04-09T13:32:41;4.60;;;4.20;;
14619;SDS011;32125;48.518;9.050;2023-04-09T13:35:09;4.38;;;4.07;;
14619;SDS011;32125;48.518;9.050;2023-04-09T13:37:35;4.05;;;3.72;;
14619;SDS011;32125;48.518;9.050;2023-04-09T13:40:01;4.40;;;4.00;;
14619;SDS011;32125;48.518;9.050;2023-04-09T13:42:28;4.43;;;4.03;;
14619;SDS011;32125;48.518;9.050;2023-04-09T13:44:54;4.55;;;4.15;;
14619;SDS011;32125;48.518;9.050;2023-04-09T13:47:21;4.47;;;4.07;;
14619;SDS011;32125;48.518;9.050;2023-04-09T13:49:47;4.50;;;4.10;;
14619;SDS011;32125;48.518;9.050;2023-04-09T13:52:15;4.17;;;3.77;;
14619;SDS011;32125;48.518;9.050;2023-04-09T13:54:42;3.75;;;3.45;;
14619;SDS011;32125;48.518;9.050;2023-04-09T13:57:08;4.07;;;3.77;;
14619;SDS011;32125;48.518;9.050;2023-04-09T13:59:35;4.40;;;4.00;;
14619;SDS011;32125;48.518;9.050;2023-04-09T14:02:05;3.87;;;3.57;;
14619;SDS011;32125;48.518;9.050;2023-04-09T14:04:31;4.30;;;3.90;;
14619;SDS011;32125;48.518;9.050;2023-04-09T14:06:59;3.70;;;3.40;;
14619;SDS011;32125;48.518;9.050;2023-04-09T14:09:25;3.90;;;3.60;;
14619;SDS011;32125;48.518;9.050;2023-04-09T14:11:51;3.63;;;3.33;;
14619;SDS011;32125;48.518;9.050;2023-04-09T14:14:19;4.47;;;3.43;;
14619;SDS011;32125;48.518;9.050;2023-04-09T14:16:45;4.20;;;3.80;;
14619;SDS011;32125;48.518;9.050;2023-04-09T14:19:12;3.80;;;3.50;;
14619;SDS011;32125;48.518;9.050;2023-04-09T14:21:38;4.30;;;3.90;;
14619;SDS011;32125;48.518;9.050;2023-04-09T14:24:05;4.50;;;4.10;;
14619;SDS011;32125;48.518;9.050;2023-04-09T14:26:31;4.30;;;3.90;;
14619;SDS011;32125;48.518;9.050;2023-04-09T14:28:57;4.67;;;4.27;;
14619;SDS011;32125;48.518;9.050;2023-04-09T14:31:23;4.30;;;3.90;;
14619;SDS011;32125;48.518;9.050;2023-04-09T14:33:52;3.93;;;3.60;;
14619;SDS011;32125;48.518;9.050;2023-04-09T14:36:18;4.20;;;3.80;;
14619;SDS011;32125;48.518;9.050;2023-04-09T14:38:44;4.33;;;3.93;;
14619;SDS011;32125;48.518;9.050;2023-04-09T14:41:12;4.40;;;4.00;;
14619;SDS011;32125;48.518;9.050;2023-04-09T14:43:40;4.07;;;3.70;;
14619;SDS011;32125;48.518;9.050;2023-04-09T14:46:06;3.90;;;3.60;;
14619;SDS011;32125;48.518;9.050;2023-04-09T14:48:35;3.73;;;3.43;;
14619;SDS011;32125;48.518;9.050;2023-04-09T14:51:04;3.87;;;3.57;;
14619;SDS011;32125;48.518;9.050;2023-04-09T14:53:31;4.23;;;3.83;;
14619;SDS011;32125;48.518;9.050;2023-04-09T14:55:57;4.30;;;3.90;;
14619;SDS011;32125;48.518;9.050;2023-04-09T14:58:25;3.90;;;3.60;;
14619;SDS011;32125;48.518;9.050;2023-04-09T15:00:51;4.00;;;3.60;;
14619;SDS011;32125;48.518;9.050;2023-04-09T15:03:17;3.97;;;3.60;;
14619;SDS011;32125;48.518;9.050;2023-04-09T15:05:43;4.13;;;3.73;;
14619;SDS011;32125;48.518;9.050;2023-04-09T15:08:10;4.33;;;3.93;;
14619;SDS011;32125;48.518;9.050;2023-04-09T15:10:38;4.77;;;4.30;;
14619;SDS011;32125;48.518;9.050;2023-04-09T15:13:04;4.50;;;4.10;;
14619;SDS011;32125;48.518;9.050;2023-04-09T15:15:30;4.00;;;3.70;;